Time;durP1;ratioP1;P1;durP2;ratioP2;P2;SDS_P1;SDS_P2;PMS_P1;PMS_P2;Temp;Humidity;BMP_temperature;BMP_pressure;BME280_temperature;BME280_humidity;BME280_pressure;Samples;Min_cycle;Max_cycle;Signal;HPM_P1;HPM_P2
2022/05/09 00:02:13;;;;;;;7.80;4.15;;;;;;;14.01;93.27;100992.84;5590223;31;33697;-67
2022/05/09 00:05:19;;;;;;;6.45;3.97;;;;;;;13.92;93.84;100992.91;5590679;31;34246;-67
2022/05/09 00:08:22;;;;;;;7.30;4.20;;;;;;;13.92;95.48;100992.06;5590649;31;34650;-67
2022/05/09 00:11:25;;;;;;;6.35;4.00;;;;;;;13.89;95.61;100995.09;5590464;31;34177;-68
2022/05/09 00:14:27;;;;;;;5.00;3.85;;;;;;;13.84;96.23;100990.28;5590680;31;34161;-67
2022/05/09 00:17:30;;;;;;;5.05;3.92;;;;;;;13.75;96.58;100985.97;5590507;31;34325;-67
2022/05/09 00:20:33;;;;;;;6.85;4.05;;;;;;;13.71;96.66;100981.16;5590598;31;34982;-67
2022/05/09 00:23:36;;;;;;;7.97;4.18;;;;;;;13.63;97.34;100984.69;5590630;31;34275;-67
2022/05/09 00:26:39;;;;;;;4.93;3.60;;;;;;;13.61;97.76;100996.53;5590532;31;34554;-67
2022/05/09 00:29:42;;;;;;;5.60;3.67;;;;;;;13.56;98.15;100991.72;5590486;31;34897;-67
2022/05/09 00:32:44;;;;;;;6.60;4.25;;;;;;;13.47;98.62;100990.91;5590446;31;35415;-67
2022/05/09 00:35:47;;;;;;;6.28;3.85;;;;;;;13.41;99.27;100999.59;5589861;31;33437;-67
2022/05/09 00:38:50;;;;;;;4.45;3.97;;;;;;;13.43;99.11;100997.59;5589389;31;32880;-67
2022/05/09 00:41:53;;;;;;;7.25;4.43;;;;;;;13.35;99.78;100999.47;5589417;31;33151;-67
2022/05/09 00:44:56;;;;;;;5.28;3.87;;;;;;;13.24;100.00;100991.81;5589493;31;33444;-67
2022/05/09 00:47:58;;;;;;;6.43;4.37;;;;;;;13.20;100.00;100994.00;5589608;31;32598;-67
2022/05/09 00:51:04;;;;;;;5.10;4.00;;;;;;;13.17;100.00;100999.66;5589545;31;33470;-67
2022/05/09 00:54:07;;;;;;;6.37;4.00;;;;;;;13.08;100.00;101001.47;5590574;31;34088;-67
2022/05/09 00:57:19;;;;;;;6.55;4.05;;;;;;;13.05;100.00;100998.31;5590106;31;34901;-68
2022/05/09 01:00:23;;;;;;;6.05;4.18;;;;;;;13.02;100.00;101006.66;5589539;31;33836;-67
2022/05/09 01:03:46;;;;;;;5.28;4.15;;;;;;;12.99;100.00;101004.31;5576182;31;32986;-68
2022/05/09 01:06:49;;;;;;;6.80;4.57;;;;;;;12.90;100.00;101010.66;5589609;31;32607;-67
2022/05/09 01:09:51;;;;;;;6.60;4.53;;;;;;;12.84;100.00;101016.63;5590515;31;34907;-67
2022/05/09 01:12:54;;;;;;;9.57;4.10;;;;;;;12.79;100.00;101019.78;5589412;31;33778;-67
2022/05/09 01:15:58;;;;;;;8.43;4.57;;;;;;;12.81;100.00;101017.81;5590028;31;34962;-67
2022/05/09 01:19:12;;;;;;;9.05;5.00;;;;;;;12.77;100.00;101013.00;5588591;31;33788;-67
2022/05/09 01:22:26;;;;;;;8.52;4.65;;;;;;;12.66;100.00;101016.81;5589392;31;32829;-67
2022/05/09 01:25:29;;;;;;;6.22;4.75;;;;;;;12.75;100.00;101020.28;5589449;31;33466;-67
2022/05/09 01:28:32;;;;;;;6.18;4.07;;;;;;;12.75;100.00;101023.78;5590322;31;34927;-67
2022/05/09 01:31:35;;;;;;;5.97;4.28;;;;;;;12.77;100.00;101023.63;5589959;31;34889;-67
2022/05/09 01:34:43;;;;;;;6.12;4.35;;;;;;;12.79;100.00;101026.94;5589967;31;34293;-68
2022/05/09 01:37:49;;;;;;;5.07;4.22;;;;;;;12.72;100.00;101026.81;5589126;31;35454;-68
2022/05/09 01:40:52;;;;;;;5.25;3.92;;;;;;;12.75;100.00;101026.47;5588966;31;33049;-67
2022/05/09 01:43:55;;;;;;;6.20;4.37;;;;;;;12.74;100.00;101018.62;5589843;31;34163;-68
2022/05/09 01:50:20;;;;;;;5.37;4.12;;;;;;;12.74;100.00;101013.31;5589729;31;34465;-68
2022/05/09 01:53:22;;;;;;;5.90;4.35;;;;;;;12.72;100.00;101025.97;5589780;31;34196;-67
2022/05/09 01:56:29;;;;;;;6.80;4.22;;;;;;;12.72;100.00;101021.47;5588091;31;34197;-67
2022/05/09 01:59:31;;;;;;;7.47;3.97;;;;;;;12.66;100.00;101019.47;5588748;31;33836;-68
2022/05/09 02:02:34;;;;;;;6.10;4.50;;;;;;;12.62;100.00;101018.12;5589760;31;34186;-68
2022/05/09 02:05:38;;;;;;;7.00;3.97;;;;;;;12.62;100.00;101018.12;5589656;31;34713;-68
2022/05/09 02:08:41;;;;;;;6.28;4.30;;;;;;;12.60;100.00;101018.28;5589595;31;34452;-68
2022/05/09 02:11:44;;;;;;;6.57;3.83;;;;;;;12.54;100.00;101020.78;5588728;31;34671;-68
2022/05/09 02:14:49;;;;;;;7.93;4.57;;;;;;;12.51;100.00;101016.63;5589602;31;34894;-68
2022/05/09 02:17:51;;;;;;;5.57;4.15;;;;;;;12.46;100.00;101013.63;5589460;31;34128;-68
2022/05/09 02:20:54;;;;;;;6.70;4.47;;;;;;;12.47;100.00;101019.78;5589841;31;34209;-68
2022/05/09 02:23:57;;;;;;;6.53;4.62;;;;;;;12.53;100.00;101016.47;5589586;31;34303;-68
2022/05/09 02:27:00;;;;;;;7.12;4.87;;;;;;;12.57;100.00;101018.62;5589614;31;34637;-68
2022/05/09 02:30:05;;;;;;;7.12;5.00;;;;;;;12.56;100.00;101013.47;5589411;31;34187;-68
2022/05/09 02:33:10;;;;;;;6.60;4.85;;;;;;;12.57;100.00;101015.12;5588637;31;34204;-68
2022/05/09 02:36:14;;;;;;;6.85;4.32;;;;;;;12.54;100.00;101024.28;5589450;31;34180;-68
2022/05/09 02:39:16;;;;;;;8.10;5.07;;;;;;;12.43;100.00;101024.59;5588253;31;32955;-67
2022/05/09 02:42:19;;;;;;;9.50;4.45;;;;;;;12.46;100.00;101023.44;5589346;31;34263;-68
2022/05/09 02:45:21;;;;;;;9.38;4.65;;;;;;;12.44;100.00;101025.44;5589329;31;33870;-68
2022/05/09 02:48:24;;;;;;;7.03;4.05;;;;;;;12.39;100.00;101025.91;5589575;31;34157;-68
2022/05/09 02:51:27;;;;;;;6.07;3.60;;;;;;;12.27;100.00;101019.25;5589179;31;34938;-68
2022/05/09 02:54:32;;;;;;;5.95;4.10;;;;;;;12.26;100.00;101028.22;5589120;31;34887;-68
2022/05/09 02:57:35;;;;;;;5.20;4.03;;;;;;;12.23;100.00;101027.72;5589062;31;34593;-67
2022/05/09 03:00:40;;;;;;;5.53;4.28;;;;;;;12.31;100.00;101041.88;5589034;31;34196;-67
2022/05/09 03:07:13;;;;;;;5.37;3.87;;;;;;;12.28;100.00;101046.69;5588942;31;34921;-68
2022/05/09 03:10:15;;;;;;;6.87;3.92;;;;;;;12.31;100.00;101033.87;5589138;31;34181;-68
2022/05/09 03:13:19;;;;;;;4.37;3.67;;;;;;;12.27;100.00;101029.06;5588178;31;34974;-68
2022/05/09 03:16:21;;;;;;;6.55;4.15;;;;;;;12.29;100.00;101033.22;5589104;31;34891;-68
2022/05/09 03:19:25;;;;;;;5.78;4.28;;;;;;;12.33;100.00;101039.88;5588577;31;34847;-68
2022/05/09 03:22:27;;;;;;;5.72;3.90;;;;;;;12.37;100.00;101049.22;5587939;31;33570;-68
2022/05/09 03:25:31;;;;;;;5.25;3.72;;;;;;;12.52;100.00;101044.91;5587871;31;34913;-67
2022/05/09 03:28:33;;;;;;;5.65;4.05;;;;;;;12.59;100.00;101051.22;5588742;31;34166;-67
2022/05/09 03:31:36;;;;;;;5.53;3.67;;;;;;;12.54;100.00;101045.56;5588490;31;34121;-68
2022/05/09 03:34:39;;;;;;;6.25;4.00;;;;;;;12.53;100.00;101049.25;5588662;31;34400;-68
2022/05/09 03:37:43;;;;;;;4.60;3.60;;;;;;;12.53;100.00;101049.25;5588243;31;34236;-68
2022/05/09 03:40:46;;;;;;;6.25;3.87;;;;;;;12.56;100.00;101056.88;5588523;31;34220;-68
2022/05/09 03:43:49;;;;;;;9.98;3.70;;;;;;;12.61;100.00;101057.22;5587628;31;32693;-68
2022/05/09 03:46:51;;;;;;;5.85;4.25;;;;;;;12.72;100.00;101056.09;5587159;31;32653;-68
2022/05/09 03:49:57;;;;;;;5.60;4.25;;;;;;;12.84;100.00;101051.25;5587436;31;34657;-68
2022/05/09 03:52:59;;;;;;;5.75;4.68;;;;;;;12.86;100.00;101059.91;5588086;31;34557;-68
2022/05/09 03:56:03;;;;;;;5.82;4.30;;;;;;;12.91;100.00;101054.94;5586886;31;33386;-68
2022/05/09 03:59:12;;;;;;;4.53;3.58;;;;;;;13.05;100.00;101059.59;5588241;31;34899;-68
2022/05/09 04:02:15;;;;;;;5.40;4.43;;;;;;;13.10;100.00;101078.56;5587899;31;34788;-68
2022/05/09 04:05:18;;;;;;;6.87;4.35;;;;;;;13.13;100.00;101072.09;5587873;31;34180;-69
2022/05/09 04:08:22;;;;;;;7.57;3.97;;;;;;;13.24;100.00;101069.09;5587785;31;34973;-68
2022/05/09 04:11:26;;;;;;;7.72;3.83;;;;;;;13.46;100.00;101077.22;5587695;31;34954;-69
2022/05/09 04:17:56;;;;;;;5.47;4.12;;;;;;;13.61;99.90;101068.50;5586740;31;33245;-69
2022/05/09 04:20:59;;;;;;;6.65;3.60;;;;;;;13.74;98.35;101075.00;5590572;31;34335;-69
2022/05/09 04:24:02;;;;;;;8.30;3.78;;;;;;;13.86;96.94;101076.28;5576788;31;33027;-69
2022/05/09 04:27:05;;;;;;;4.65;3.72;;;;;;;14.03;96.42;101086.91;5589860;31;32949;-69
2022/05/09 04:30:09;;;;;;;5.75;3.35;;;;;;;14.15;94.95;101083.66;5589530;31;32970;-68
2022/05/09 04:33:12;;;;;;;5.28;3.42;;;;;;;14.32;92.75;101087.94;5589694;31;34204;-68
2022/05/09 04:36:15;;;;;;;6.00;3.22;;;;;;;14.52;91.03;101085.69;5589620;31;33665;-68
2022/05/09 04:39:20;;;;;;;5.22;3.70;;;;;;;14.58;91.61;101089.47;5590177;31;35583;-68
2022/05/09 04:42:23;;;;;;;5.25;3.80;;;;;;;14.70;90.90;101088.91;5589742;31;33651;-69
2022/05/09 04:45:30;;;;;;;6.72;3.67;;;;;;;14.91;90.26;101096.25;5589696;31;33527;-69
2022/05/09 04:48:34;;;;;;;6.05;3.40;;;;;;;14.96;89.48;101098.41;5590029;31;35743;-69
2022/05/09 04:51:37;;;;;;;5.03;3.60;;;;;;;14.76;88.24;101100.72;5589666;31;32687;-68
2022/05/09 04:54:40;;;;;;;5.18;3.62;;;;;;;14.97;87.23;101097.38;5589110;31;32515;-68
2022/05/09 04:57:43;;;;;;;5.87;3.35;;;;;;;14.86;87.49;101095.97;5590052;31;34434;-69
2022/05/09 05:00:47;;;;;;;47.58;6.62;;;;;;;14.85;86.71;101091.63;5590095;31;34948;-68
2022/05/09 05:03:53;;;;;;;4.57;3.20;;;;;;;14.77;87.20;101095.19;5589211;31;32665;-68
2022/05/09 05:06:56;;;;;;;3.58;3.12;;;;;;;14.83;87.06;101095.47;5589341;31;32876;-69
2022/05/09 05:09:59;;;;;;;4.87;3.40;;;;;;;15.03;86.38;101105.53;5589404;31;33411;-68
2022/05/09 05:13:03;;;;;;;4.25;3.15;;;;;;;15.02;85.96;101100.34;5589243;31;33251;-68
2022/05/09 05:16:05;;;;;;;3.72;2.95;;;;;;;14.99;86.81;101103.38;5589280;31;34772;-69
2022/05/09 05:19:08;;;;;;;6.32;3.20;;;;;;;15.09;85.86;101112.81;5589851;31;34843;-69
2022/05/09 05:22:15;;;;;;;5.97;3.15;;;;;;;15.41;83.56;101105.53;5589858;31;34208;-68
2022/05/09 05:25:21;;;;;;;5.15;3.58;;;;;;;15.44;82.84;101107.84;5588724;31;32702;-69
2022/05/09 05:28:24;;;;;;;6.50;3.17;;;;;;;15.74;80.31;101109.56;5589017;31;32754;-69
2022/05/09 05:31:28;;;;;;;5.93;3.42;;;;;;;15.79;80.85;101109.84;5588439;31;34182;-69
2022/05/09 05:34:30;;;;;;;4.90;3.15;;;;;;;16.09;80.68;101108.84;5589732;31;34160;-69
2022/05/09 05:37:34;;;;;;;4.47;2.95;;;;;;;16.33;78.98;101109.53;5589833;31;34960;-68
2022/05/09 05:40:36;;;;;;;5.18;2.90;;;;;;;16.47;77.50;101108.69;5588439;31;32721;-68
2022/05/09 05:43:39;;;;;;;4.93;2.87;;;;;;;16.71;76.15;101113.72;5589589;31;34297;-68
2022/05/09 05:46:42;;;;;;;5.62;3.75;;;;;;;17.03;75.31;101120.44;5575717;31;32818;-68
2022/05/09 05:49:48;;;;;;;6.97;3.85;;;;;;;17.36;74.36;101120.75;5588430;31;34554;-67
2022/05/09 05:52:51;;;;;;;6.57;3.60;;;;;;;17.39;73.88;101118.50;5589305;31;34341;-69
2022/05/09 05:55:54;;;;;;;7.72;3.55;;;;;;;17.37;74.05;101119.72;5589411;31;34329;-67
2022/05/09 05:58:57;;;;;;;7.32;3.28;;;;;;;17.45;72.52;101124.94;5589247;31;34649;-67
2022/05/09 06:01:59;;;;;;;5.65;3.10;;;;;;;17.52;72.16;101127.69;5588202;31;32856;-67
2022/05/09 06:05:09;;;;;;;3.85;2.87;;;;;;;17.85;70.67;101134.12;5588319;31;33439;-67
2022/05/09 06:08:11;;;;;;;3.50;2.70;;;;;;;18.16;70.25;101136.38;5588039;31;32869;-67
2022/05/09 06:11:14;;;;;;;4.37;2.97;;;;;;;17.86;69.83;101130.44;5588806;31;34237;-69
2022/05/09 06:14:17;;;;;;;4.25;3.10;;;;;;;18.05;68.32;101132.41;5589257;31;34852;-67
2022/05/09 06:17:20;;;;;;;3.67;2.75;;;;;;;18.14;67.32;101135.75;5588598;31;32854;-67
2022/05/09 06:20:23;;;;;;;6.47;2.80;;;;;;;18.24;66.89;101142.41;5589000;31;34406;-67
2022/05/09 06:23:27;;;;;;;4.28;2.62;;;;;;;18.36;67.31;101142.66;5589084;31;34529;-65
2022/05/09 06:26:31;;;;;;;3.00;2.40;;;;;;;18.09;68.54;101133.66;5587900;31;33099;-68
2022/05/09 06:29:34;;;;;;;6.70;2.55;;;;;;;18.35;66.78;101143.69;5587475;31;32781;-67
2022/05/09 06:32:53;;;;;;;6.80;2.60;;;;;;;19.24;64.54;101147.06;5577207;31;32563;-68
2022/05/09 06:35:58;;;;;;;4.30;2.78;;;;;;;19.15;63.99;101144.78;5588028;31;34225;-67
2022/05/09 06:39:02;;;;;;;4.00;2.28;;;;;;;19.46;64.30;101153.13;5588119;31;33892;-67
2022/05/09 06:42:06;;;;;;;5.25;2.47;;;;;;;19.25;63.95;101150.59;5587711;31;32575;-67
2022/05/09 06:45:10;;;;;;;3.72;2.20;;;;;;;19.54;63.20;101152.91;5587951;31;33561;-67
2022/05/09 06:48:13;;;;;;;5.03;2.58;;;;;;;20.10;60.98;101157.78;5587694;31;33676;-68
2022/05/09 06:51:16;;;;;;;2.90;2.12;;;;;;;19.93;61.90;101152.88;5587850;31;33657;-67
2022/05/09 06:54:21;;;;;;;3.40;2.20;;;;;;;20.15;60.08;101150.75;5588745;31;34138;-67
2022/05/09 06:57:24;;;;;;;4.22;2.47;;;;;;;20.57;59.96;101149.37;5588607;31;34334;-69
2022/05/09 07:00:27;;;;;;;5.78;2.00;;;;;;;20.55;59.73;101151.47;5587982;31;32602;-67
2022/05/09 07:03:31;;;;;;;4.07;2.40;;;;;;;20.22;61.17;101151.56;5588632;31;34284;-68
2022/05/09 07:06:33;;;;;;;3.42;2.20;;;;;;;20.52;60.27;101153.75;5588483;31;34837;-68
2022/05/09 07:09:37;;;;;;;4.30;2.28;;;;;;;20.79;59.35;101161.50;5588562;31;34469;-68
2022/05/09 07:12:52;;;;;;;6.05;2.53;;;;;;;21.19;57.47;101154.03;5588508;31;34881;-68
2022/05/09 07:15:57;;;;;;;3.53;1.90;;;;;;;21.07;57.29;101158.44;5587151;31;32576;-68
2022/05/09 07:19:00;;;;;;;2.83;2.05;;;;;;;21.98;54.66;101157.91;5587388;31;33174;-69
2022/05/09 07:22:03;;;;;;;4.25;2.15;;;;;;;23.30;51.54;101170.59;5574268;31;33378;-69
2022/05/09 07:25:05;;;;;;;2.47;2.00;;;;;;;22.79;52.08;101163.03;5587220;31;34401;-68
2022/05/09 07:28:11;;;;;;;4.00;2.20;;;;;;;23.16;51.04;101164.56;5587543;31;32583;-68
2022/05/09 07:31:15;;;;;;;4.57;2.30;;;;;;;22.92;50.92;101169.06;5587450;31;32933;-67
2022/05/09 07:34:18;;;;;;;2.05;1.80;;;;;;;22.90;50.61;101168.47;5587609;31;32709;-67
2022/05/09 07:37:21;;;;;;;2.92;2.00;;;;;;;23.92;47.22;101171.84;5588152;31;34204;-67
2022/05/09 07:40:24;;;;;;;3.60;2.10;;;;;;;23.46;48.31;101167.25;5587534;31;33148;-67
2022/05/09 07:43:29;;;;;;;2.72;2.10;;;;;;;23.83;46.96;101163.25;5588050;31;35560;-66
2022/05/09 07:46:32;;;;;;;2.28;1.80;;;;;;;23.87;46.97;101168.22;5588466;31;34457;-67
2022/05/09 07:49:50;;;;;;;3.17;1.95;;;;;;;25.15;44.91;101160.59;5588135;31;34285;-68
2022/05/09 07:52:53;;;;;;;3.30;2.12;;;;;;;26.23;41.23;101164.75;5587915;31;34804;-66
2022/05/09 07:55:56;;;;;;;3.65;2.20;;;;;;;26.31;40.42;101164.31;5590268;31;34339;-67
2022/05/09 07:58:59;;;;;;;2.03;1.75;;;;;;;26.26;39.52;101161.53;5589990;31;33240;-68
2022/05/09 08:02:02;;;;;;;2.70;1.85;;;;;;;27.64;36.33;101160.81;5590153;31;35054;-67
2022/05/09 08:05:06;;;;;;;3.62;1.90;;;;;;;27.22;37.52;101168.06;5590540;31;34130;-68
2022/05/09 08:08:10;;;;;;;4.78;1.98;;;;;;;26.53;38.17;101159.69;5589316;31;33482;-67
2022/05/09 08:11:13;;;;;;;6.15;2.35;;;;;;;27.26;37.14;101163.75;5590139;31;34936;-68
2022/05/09 08:14:16;;;;;;;2.42;1.90;;;;;;;29.24;32.51;101166.41;5590453;31;34912;-68
2022/05/09 08:17:19;;;;;;;3.45;1.90;;;;;;;29.25;31.65;101159.84;5590461;31;34439;-69
2022/05/09 08:20:22;;;;;;;3.90;2.08;;;;;;;29.16;31.15;101160.66;5589881;31;34130;-68
2022/05/09 08:23:25;;;;;;;29.02;3.53;;;;;;;29.11;32.02;101155.19;5590048;31;34547;-68
2022/05/09 08:26:28;;;;;;;3.17;1.90;;;;;;;27.81;33.65;101157.94;5590271;31;34294;-67
2022/05/09 08:29:31;;;;;;;6.53;2.47;;;;;;;27.23;33.89;101154.19;5589181;31;33988;-68
2022/05/09 08:32:36;;;;;;;4.95;2.17;;;;;;;28.38;32.65;101154.44;5589558;31;34154;-67
2022/05/09 08:35:39;;;;;;;5.65;2.00;;;;;;;30.39;29.25;101152.84;5590130;31;34234;-67
2022/05/09 08:38:42;;;;;;;9.05;3.72;;;;;;;28.73;32.06;101142.84;5589731;31;34313;-67
2022/05/09 08:42:00;;;;;;;3.20;2.05;;;;;;;28.70;31.19;101143.38;5590186;31;34972;-67
2022/05/09 08:45:19;;;;;;;4.15;2.33;;;;;;;29.06;31.11;101147.00;5589144;31;34960;-68
2022/05/09 08:48:47;;;;;;;4.22;2.20;;;;;;;29.77;29.61;101150.56;5589195;31;34250;-67
2022/05/09 08:52:21;;;;;;;3.72;1.67;;;;;;;30.45;28.77;101150.94;5589720;31;34166;-67
2022/05/09 08:55:32;;;;;;;3.12;1.80;;;;;;;32.18;26.09;101146.56;5588968;31;34396;-67
2022/05/09 08:58:41;;;;;;;4.12;1.98;;;;;;;31.84;26.65;101154.06;5589034;31;32582;-68
2022/05/09 09:01:51;;;;;;;3.80;2.10;;;;;;;31.69;26.38;101148.72;5589743;31;34506;-67
2022/05/09 09:04:55;;;;;;;2.60;2.00;;;;;;;30.64;28.11;101154.69;5589597;31;34442;-69
2022/05/09 09:08:26;;;;;;;2.25;1.85;;;;;;;30.23;27.72;101148.53;5589693;31;34846;-68
2022/05/09 09:11:36;;;;;;;3.33;1.90;;;;;;;31.06;27.08;101155.00;5588439;31;35219;-67
2022/05/09 09:14:45;;;;;;;5.85;2.12;;;;;;;31.58;26.76;101158.97;5588726;31;33412;-67
2022/05/09 09:18:04;;;;;;;5.03;2.05;;;;;;;32.92;25.30;101144.22;5588973;31;34350;-66
2022/05/09 09:21:11;;;;;;;3.72;2.10;;;;;;;31.55;26.37;101142.25;5588937;31;33062;-66
2022/05/09 09:24:40;;;;;;;2.75;1.90;;;;;;;32.51;25.00;101154.91;5589549;31;34859;-66
2022/05/09 09:27:49;;;;;;;4.97;1.90;;;;;;;31.72;25.04;101150.88;5589072;31;34584;-67
2022/05/09 09:30:53;;;;;;;4.05;2.20;;;;;;;31.35;26.53;101149.56;5589309;31;33887;-67
2022/05/09 09:34:17;;;;;;;4.85;2.00;;;;;;;31.10;26.11;101155.22;5589127;31;35510;-66
2022/05/09 09:37:37;;;;;;;2.80;2.00;;;;;;;31.49;25.91;101155.19;5588454;31;32929;-69
2022/05/09 09:40:40;;;;;;;5.00;1.85;;;;;;;30.78;26.21;101149.41;5589890;31;33738;-68
2022/05/09 09:43:45;;;;;;;3.60;2.10;;;;;;;30.98;25.81;101138.31;5591577;31;34222;-66
2022/05/09 09:47:03;;;;;;;2.05;1.85;;;;;;;30.70;26.71;101145.31;5589746;31;34934;-67
2022/05/09 09:50:14;;;;;;;2.78;2.08;;;;;;;29.45;28.83;101137.19;5589571;31;34626;-67
2022/05/09 09:53:31;;;;;;;3.30;2.03;;;;;;;30.93;26.60;101139.16;5589442;31;34108;-67
2022/05/09 09:56:34;;;;;;;2.78;1.92;;;;;;;30.87;26.73;101139.47;5588667;31;32803;-67
2022/05/09 09:59:37;;;;;;;2.10;1.80;;;;;;;30.89;26.76;101137.25;5588341;31;33039;-66
2022/05/09 10:02:40;;;;;;;3.45;2.12;;;;;;;31.49;26.23;101135.97;5589569;31;34954;-67
2022/05/09 10:05:46;;;;;;;5.62;1.95;;;;;;;31.49;26.39;101145.03;5589722;31;34200;-66
2022/05/09 10:09:08;;;;;;;2.00;1.57;;;;;;;29.98;29.87;101130.28;5589347;31;33000;-65
2022/05/09 10:12:32;;;;;;;2.37;1.90;;;;;;;29.40;31.08;101128.19;5589686;31;34262;-66
2022/05/09 10:15:39;;;;;;;2.80;1.75;;;;;;;29.54;29.73;101121.03;5589716;31;34895;-67
2022/05/09 10:18:43;;;;;;;3.47;1.92;;;;;;;28.86;31.65;101115.81;5587860;31;33208;-68
2022/05/09 10:25:57;;;;;;;3.25;1.98;;;;;;;33.93;24.85;101115.78;5588097;31;33070;-67
2022/05/09 10:29:17;;;;;;;5.28;1.80;;;;;;;33.48;24.08;101116.62;5589164;31;34219;-68
2022/05/09 10:32:27;;;;;;;4.22;1.95;;;;;;;32.37;24.26;101115.56;5588186;31;32672;-69
2022/05/09 10:35:51;;;;;;;2.47;2.08;;;;;;;31.03;25.15;101113.62;5575552;31;33875;-67
2022/05/09 10:39:03;;;;;;;5.40;1.73;;;;;;;30.66;26.22;101111.37;5588264;31;33056;-67
2022/05/09 10:42:09;;;;;;;1.52;1.23;;;;;;;30.04;26.90;101110.03;5588333;31;33322;-67
2022/05/09 10:45:18;;;;;;;5.12;1.50;;;;;;;28.53;28.27;101108.91;5589384;31;34835;-68
2022/05/09 10:48:21;;;;;;;;;;;;;;;29.46;27.19;101099.75;5574914;31;32977;-67
2022/05/09 10:51:42;;;;;;;2.53;1.60;;;;;;;29.44;27.43;101108.22;5589058;31;35078;-67
2022/05/09 10:55:04;;;;;;;3.67;1.60;;;;;;;28.78;28.45;101090.97;5587930;31;32708;-68
2022/05/09 10:58:25;;;;;;;4.10;2.00;;;;;;;30.09;27.48;101095.50;5587988;31;34779;-67
2022/05/09 11:01:42;;;;;;;2.45;1.70;;;;;;;29.65;28.18;101100.81;5589097;31;35013;-66
2022/05/09 11:04:44;;;;;;;1.92;1.62;;;;;;;28.91;28.93;101096.72;5588132;31;33427;-67
2022/05/09 11:08:11;;;;;;;8.35;2.00;;;;;;;28.51;30.28;101099.38;5587832;31;34382;-66
2022/05/09 11:11:31;;;;;;;3.58;1.77;;;;;;;28.86;30.55;101098.63;5588069;31;32978;-66
2022/05/09 11:15:00;;;;;;;2.60;1.83;;;;;;;28.52;31.09;101099.06;5587587;31;33635;-66
2022/05/09 11:18:28;;;;;;;2.75;1.60;;;;;;;29.46;28.92;101094.28;5588507;31;34130;-66
2022/05/09 11:21:46;;;;;;;2.72;1.98;;;;;;;28.65;29.97;101089.56;5588691;31;34234;-66
2022/05/09 11:25:06;;;;;;;2.37;1.95;;;;;;;29.28;29.51;101095.63;5587387;31;33946;-65
2022/05/09 11:28:28;;;;;;;2.55;1.83;;;;;;;28.61;30.19;101093.09;5587106;31;33173;-66
2022/05/09 11:31:44;;;;;;;3.05;1.75;;;;;;;29.41;29.73;101084.16;5590774;31;34364;-66
2022/05/09 11:34:46;;;;;;;1.95;1.60;;;;;;;29.83;27.93;101074.75;5589646;31;33018;-66
2022/05/09 11:38:15;;;;;;;3.20;1.87;;;;;;;32.79;24.14;101074.31;5589520;31;33807;-67
2022/05/09 11:41:38;;;;;;;2.80;1.70;;;;;;;34.94;21.12;101071.41;5589349;31;32586;-66
2022/05/09 11:44:47;;;;;;;4.65;1.80;;;;;;;34.62;20.80;101068.84;5589384;31;32918;-67
2022/05/09 11:48:03;;;;;;;1.60;1.50;;;;;;;37.13;19.08;101072.22;5589467;31;33714;-68
2022/05/09 11:51:24;;;;;;;4.72;1.95;;;;;;;33.24;22.22;101066.44;5589578;31;34343;-65
2022/05/09 11:54:29;;;;;;;2.75;1.85;;;;;;;30.51;29.02;101070.38;5589482;31;34450;-66
2022/05/09 11:57:40;;;;;;;6.68;1.75;;;;;;;27.11;32.00;101077.25;5589808;31;32812;-66
2022/05/09 12:00:47;;;;;;;4.05;2.10;;;;;;;27.10;33.81;101080.25;5590016;31;34849;-66
2022/05/09 12:03:52;;;;;;;2.53;2.03;;;;;;;26.59;34.71;101084.37;5590385;31;34853;-67
2022/05/09 12:06:54;;;;;;;2.80;2.12;;;;;;;26.14;35.12;101084.66;5589595;31;32696;-67
2022/05/09 12:09:57;;;;;;;3.20;2.05;;;;;;;27.62;33.49;101085.84;5590609;31;34660;-66
2022/05/09 12:13:04;;;;;;;4.65;1.80;;;;;;;26.95;34.08;101091.03;5588876;31;33704;-65
2022/05/09 12:16:07;;;;;;;5.05;1.98;;;;;;;26.03;35.48;101082.88;5589962;31;34373;-67
2022/05/09 12:19:30;;;;;;;5.78;1.75;;;;;;;26.89;34.10;101078.44;5590386;31;34249;-66
2022/05/09 12:22:42;;;;;;;4.28;1.77;;;;;;;25.27;36.52;101087.19;5577024;31;32683;-65
2022/05/09 12:25:48;;;;;;;4.60;1.95;;;;;;;23.50;41.11;101092.59;5590118;31;35459;-65
2022/05/09 12:28:51;;;;;;;2.35;1.45;;;;;;;22.65;42.16;101086.62;5589371;31;33975;-65
2022/05/09 12:31:59;;;;;;;5.30;2.03;;;;;;;21.82;53.16;101099.88;5589305;31;34942;-68
2022/05/09 12:35:07;;;;;;;5.55;1.75;;;;;;;19.16;71.54;101100.72;5589990;31;34907;-67
2022/05/09 12:38:33;;;;;;;4.55;2.08;;;;;;;17.52;77.06;101112.41;5589639;31;34927;-69
2022/05/09 12:41:53;;;;;;;3.70;2.17;;;;;;;16.98;80.62;101116.69;5589864;31;34277;-70
2022/05/09 12:44:57;;;;;;;4.43;2.50;;;;;;;16.75;86.70;101098.91;5590349;31;35500;-71
2022/05/09 12:48:01;;;;;;;7.87;2.83;;;;;;;16.68;84.19;101095.34;5589198;31;33225;-70
2022/05/09 12:51:08;;;;;;;5.37;3.35;;;;;;;16.42;86.98;101093.16;5590528;31;34811;-70
2022/05/09 12:54:16;;;;;;;14.23;9.30;;;;;;;16.18;100.00;101088.13;5576115;31;33128;-70
2022/05/09 12:57:32;;;;;;;6.57;3.87;;;;;;;16.27;100.00;101078.97;5589559;31;33534;-69
2022/05/09 13:00:37;;;;;;;10.57;4.35;;;;;;;16.50;100.00;101068.97;5589017;31;32852;-70
2022/05/09 13:04:06;;;;;;;7.03;3.90;;;;;;;16.29;100.00;101065.41;5589963;31;34114;-70
2022/05/09 13:07:09;;;;;;;;;;;;;;;16.27;100.00;101067.44;5590272;31;34862;-70
2022/05/09 13:10:13;;;;;;;6.32;3.40;;;;;;;16.36;100.00;101059.09;5590283;31;34612;-69
2022/05/09 13:13:25;;;;;;;4.30;3.08;;;;;;;16.37;100.00;101059.94;5589350;31;32807;-69
2022/05/09 13:16:41;;;;;;;4.28;3.33;;;;;;;16.51;100.00;101051.84;5591431;31;34352;-67
2022/05/09 13:19:49;;;;;;;5.15;2.83;;;;;;;16.41;100.00;101054.00;5588769;31;33298;-68
2022/05/09 13:22:59;;;;;;;5.53;3.47;;;;;;;16.32;100.00;101049.78;5589116;31;33392;-68
2022/05/09 13:26:05;;;;;;;3.92;2.67;;;;;;;16.45;100.00;101047.28;5589303;31;32591;-68
2022/05/09 13:29:09;;;;;;;3.28;2.35;;;;;;;16.59;100.00;101050.13;5588777;31;34436;-69
2022/05/09 13:32:29;;;;;;;3.67;2.50;;;;;;;16.84;100.00;101052.25;5588914;31;32670;-68
2022/05/09 13:35:34;;;;;;;4.25;2.90;;;;;;;16.75;91.17;101039.97;5589765;31;34366;-68
2022/05/09 13:38:40;;;;;;;3.92;2.83;;;;;;;16.95;100.00;101032.94;5589588;31;34198;-68
2022/05/09 13:41:44;;;;;;;4.28;2.80;;;;;;;17.76;100.00;101033.34;5589048;31;32358;-68
2022/05/09 13:44:48;;;;;;;5.30;3.00;;;;;;;18.44;79.88;101035.03;5588563;31;34416;-68
2022/05/09 13:48:00;;;;;;;6.25;2.85;;;;;;;19.08;90.89;101031.81;5588497;31;33706;-67
2022/05/09 13:51:04;;;;;;;5.50;3.10;;;;;;;19.78;88.70;101030.28;5588141;31;33995;-68
2022/05/09 13:54:09;;;;;;;5.95;2.80;;;;;;;20.39;76.64;101022.56;5575185;31;33306;-69
2022/05/09 13:57:20;;;;;;;4.72;3.00;;;;;;;21.52;80.31;101039.53;5588540;31;34404;-68
2022/05/09 14:00:25;;;;;;;3.40;2.50;;;;;;;21.74;79.20;101029.94;5588527;31;32802;-68
2022/05/09 14:03:38;;;;;;;6.53;3.10;;;;;;;21.61;79.53;101033.63;5588148;31;33649;-68
2022/05/09 14:06:44;;;;;;;4.57;3.05;;;;;;;21.34;77.53;101032.25;5589255;31;34887;-68
2022/05/09 14:09:48;;;;;;;3.47;2.62;;;;;;;21.63;79.32;101036.09;5588894;31;32412;-69
2022/05/09 14:12:52;;;;;;;3.67;2.83;;;;;;;22.05;77.08;101037.09;5589421;31;34424;-69
2022/05/09 14:16:10;;;;;;;6.18;2.95;;;;;;;24.23;66.40;101035.12;5588230;31;34489;-69
2022/05/09 14:19:31;;;;;;;3.22;2.00;;;;;;;28.15;57.69;101034.84;5588049;31;34013;-69
2022/05/09 14:22:34;;;;;;;2.70;2.22;;;;;;;30.21;38.39;101043.97;5588501;31;33341;-70
2022/05/09 14:32:46;;;;;;;2.37;1.90;;;;;;;26.35;52.10;101040.31;5588605;31;34846;-70
2022/05/09 14:35:49;;;;;;;2.62;1.90;;;;;;;23.92;54.15;101036.34;5587382;31;33390;-68
2022/05/09 14:39:00;;;;;;;3.58;2.20;;;;;;;22.99;56.83;101049.94;5588083;31;32939;-68
2022/05/09 14:42:14;;;;;;;2.97;1.92;;;;;;;22.39;59.25;101046.41;5587697;31;33801;-69
2022/05/09 14:45:23;;;;;;;6.40;2.30;;;;;;;22.30;58.55;101034.28;5588405;31;34913;-69
2022/05/09 14:48:30;;;;;;;3.05;1.85;;;;;;;23.40;58.86;101039.00;5588178;31;34221;-69
2022/05/09 14:51:32;;;;;;;2.58;1.90;;;;;;;22.69;56.35;101033.72;5588250;31;34937;-68